Briefing drone pour Noyers-sur-cher

Rechercher une autre localisation

Conditions de vol :


Nous sommes le : Lundi 02 août 2021
Il est 22:52 UTC (00:52 LT)

Lever de soleil : 04:08 UTC (06:08 LT)
Coucher de soleil : 19:52 UTC (21:52 LT)

Météo

L'essentiel des conditions de vol

VIGILANCE MÉTÉO FRANCE - Loir-et-Cher (41)
Pas de vigilances particulieres
CARTE TEMSI
CARTES DES FRONTS
METAR de LFYR
LFYR 012230Z AUTO 00000KT 0900 FG SCT048 BKN060 12/12 Q1015

Date d'émission: 01/08/2021
Heure d'émission: 22:30 UTC
Vent: Calme
Visibilité horizontale: 0900 m
Plafond :
- Nuages épars à 4800ft (1463m)
- Nuages morcelés à 6000ft (1829m)
Température: 12 °C
Point de rosée: 12 °C
Humidité: 100%
Pression (QNH): 1015 hPa
Conditions: Brouillard
TAF de LFYR
AMD LFYR 301312Z 3013/3109 CNL

Conditions prévues :

Heure d'émission : Bulletin éffectué le 30 à 13:00 UTC
Prévision : Valide du 30 a 13:00 UTC au 31 a 09:00 UTC
Nuages : à 0ft (0 m)
WEBCAM POUR NOYERS-SUR-CHER

Réglementation

Voler en sécurité

CARTES AERONAUTIQUE 1/500.000
CARTES VAC (LFYR)
SUP AIP




Chargement des AIP...
NOTAM (NOYERS-SUR-CHER + Terrain à proximité / FIR )




Chargement des NOTAMS...
CONTACT PREFECTURE 41
Loir-et-Cher (41) : pref-bpas@loir-et-cher.gouv.fr


Avertissement : Les données mises à disposition sont indicatives. Oxygène Drone ne pourra être tenu responsable de dégâts causés aux biens et aux personnes.